Камери на живо
ЦПИ
02 9374270
ЦКИВП
02 9371284
ЦКИВП
02 9374762
Партньори:
системи за видеонаблюдение
telenor
telesys
УЧИЛИЩЕ ЗА ПИЛОТИ ОЛИМПИЯ ЕР
Еър Ситис ЕООД
Авиационен Център Долна Баня
Камери на живо - sub stream
METAR for:LBSF (Sofia Intl, SO, BG)
Text:LBSF 291530Z 14009KT CAVOK 13/05 Q1019 NOSIG
Conditions at:1530 UTC 29 Feb 2024
Temperature: 13.0°C ( 55°F)
Dewpoint: 5.0°C ( 41°F) [RH = 58%]
Pressure (altimeter):30.09 inches Hg (1019.0 mb)
Winds:from the SE (140 degrees) at 10 MPH (9 knots; 4.6 m/s)
Visibility:6 or more sm (10+ km)
Ceiling:ceiling and visibility are OK
Clouds:unknown

METAR for:LBPD (Plovdiv Arpt, PL, BG)
Text:LBPD 291530Z AUTO 00000KT 9999 BKN150/// 14/07 Q1019 NOSIG
Conditions at:1530 UTC 29 Feb 2024
Temperature: 14.0°C ( 57°F)
Dewpoint: 7.0°C ( 45°F) [RH = 63%]
Pressure (altimeter):30.09 inches Hg (1019.0 mb)
Winds:calm
Visibility:6 or more sm (10+ km)
Ceiling:15000 feet AGL
Clouds:broken clouds at 15000 feet AGL

METAR for:LBWN (Varna Intl, VA, BG)
Text:LBWN 291530Z 11010KT 8000 OVC004 07/06 Q1022 TEMPO 4000 BR BKN003
Conditions at:1530 UTC 29 Feb 2024
Temperature: 7.0°C ( 45°F)
Dewpoint: 6.0°C ( 43°F) [RH = 93%]
Pressure (altimeter):30.18 inches Hg (1022.0 mb)
Winds:from the ESE (110 degrees) at 12 MPH (10 knots; 5.1 m/s)
Visibility:5 sm (8 km)
Ceiling:400 feet AGL
Clouds:overcast cloud deck at 400 feet AGL

METAR for:LBBG (Burgas Arpt, BU, BG)
Text:LBBG 291530Z 10008KT 9000 OVC004 08/07 Q1022 NOSIG
Conditions at:1530 UTC 29 Feb 2024
Temperature: 8.0°C ( 46°F)
Dewpoint: 7.0°C ( 45°F) [RH = 93%]
Pressure (altimeter):30.18 inches Hg (1022.0 mb)
Winds:from the E (100 degrees) at 9 MPH (8 knots; 4.1 m/s)
Visibility:6 sm (9 km)
Ceiling:400 feet AGL
Clouds:overcast cloud deck at 400 feet AGL

METAR for:LBGO (Gorna Orechovista Arpt, LO, BG)
Text:LBGO 291530Z AUTO 28009KT 9999 FEW160/// BKN190/// 12/08 Q1019 NOSIG
Conditions at:1530 UTC 29 Feb 2024
Temperature: 12.0°C ( 54°F)
Dewpoint: 8.0°C ( 46°F) [RH = 76%]
Pressure (altimeter):30.09 inches Hg (1019.0 mb)
Winds:from the W (280 degrees) at 10 MPH (9 knots; 4.6 m/s)
Visibility:6 or more sm (10+ km)
Ceiling:19000 feet AGL
Clouds:few clouds at 16000 feet AGL, broken clouds at 19000 feet AGL

METAR for:LBPG (Graf Ignatievo(AB), PL, BG)
Text:LBPG 291500Z 09004KT 6000 HZ BKN200 14/08 Q1020
Conditions at:1500 UTC 29 Feb 2024
Temperature: 14.0°C ( 57°F)
Dewpoint: 8.0°C ( 46°F) [RH = 67%]
Pressure (altimeter):30.12 inches Hg (1020.0 mb)
Winds:from the E (90 degrees) at 5 MPH (4 knots; 2.1 m/s)
Visibility:4 sm (6 km)
Ceiling:20000 feet AGL
Clouds:broken clouds at 20000 feet AGL
Weather:HZ (haze)

METAR for:LBIA (Bezmer(AB), BU, BG)
Text:LBIA 291500Z 06010KT 9999 OVC200 13/07 Q1020
Conditions at:1500 UTC 29 Feb 2024
Temperature: 13.0°C ( 55°F)
Dewpoint: 7.0°C ( 45°F) [RH = 67%]
Pressure (altimeter):30.12 inches Hg (1020.0 mb)
Winds:from the ENE (60 degrees) at 12 MPH (10 knots; 5.1 m/s)
Visibility:6 or more sm (10+ km)
Ceiling:20000 feet AGL
Clouds:overcast cloud deck at 20000 feet AGL